Santa Terezinha, Brazil
Current Conditions -  °F | °C
As of 10:00 AM on Thursday 23 Oct 2014 (Local Time) from SBPJ Reporting Station
Few Clouds Few Clouds  
Wind Chill: 81°   Ceiling: Unl
Heat Index: 84°   Visibility: 6mi
Dew Point: 70°   Wind: 3mph
Humidity: 70%   Direction: 250°WSW
Pressure: 30"   Gusts: NA
Location:  10.47°S, 50.5°W
Report Text: SBPJ 231300Z 25003KT 9999 FEW019 27/21 Q1016
Loading
Personal Weather Stations






























Interactive Weather Map
Tropical Storm Tracking
New forecast layout! Learn more

10-Day Weather Forecast

Advertisements
Track Severe Weather on mobile